createdAt,value
2022-07-31T00:00:41.339Z,9.50
2022-07-31T00:03:12.937Z,9.60
2022-07-31T00:05:44.695Z,8.87
2022-07-31T00:08:17.131Z,10.63
2022-07-31T00:10:48.432Z,14.10
2022-07-31T00:13:19.802Z,10.23
2022-07-31T00:16:11.141Z,9.23
2022-07-31T00:18:42.519Z,8.67
2022-07-31T00:21:14.054Z,10.17
2022-07-31T00:23:45.644Z,9.83
2022-07-31T00:26:16.986Z,12.30
2022-07-31T00:28:48.319Z,10.70
2022-07-31T00:31:19.712Z,9.90
2022-07-31T00:33:51.201Z,13.67
2022-07-31T00:36:29.914Z,7.03
2022-07-31T00:39:01.760Z,9.63
2022-07-31T00:41:41.085Z,10.97
2022-07-31T00:44:14.167Z,8.33
2022-07-31T00:46:45.520Z,14.97
2022-07-31T00:49:17.271Z,9.93
2022-07-31T00:51:48.675Z,9.20
2022-07-31T00:54:22.509Z,16.37
2022-07-31T00:56:54.226Z,8.57
2022-07-31T00:59:27.134Z,11.03
2022-07-31T01:01:59.298Z,11.10
2022-07-31T01:04:31.364Z,13.03
2022-07-31T01:07:04.168Z,9.97
2022-07-31T01:09:35.725Z,8.57
2022-07-31T01:12:16.173Z,10.07
2022-07-31T01:14:53.099Z,15.03
2022-07-31T01:17:27.627Z,12.00
2022-07-31T01:19:59.695Z,9.47
2022-07-31T01:22:56.627Z,8.00
2022-07-31T01:29:04.107Z,13.20
2022-07-31T01:31:43.946Z,10.37
2022-07-31T01:34:31.834Z,12.60
2022-07-31T01:37:25.065Z,10.17
2022-07-31T01:40:08.452Z,13.00
2022-07-31T01:42:44.068Z,8.67
2022-07-31T01:45:17.974Z,9.13
2022-07-31T01:47:50.369Z,10.40
2022-07-31T01:50:42.646Z,8.67
2022-07-31T01:53:20.431Z,11.93
2022-07-31T01:55:56.561Z,9.00
2022-07-31T01:58:38.590Z,7.93
2022-07-31T02:01:14.025Z,9.97
2022-07-31T02:03:46.692Z,11.95
2022-07-31T02:06:23.359Z,7.53
2022-07-31T02:08:56.584Z,8.57
2022-07-31T02:11:28.768Z,11.10
2022-07-31T02:14:02.585Z,8.53
2022-07-31T02:16:34.306Z,17.37
2022-07-31T02:19:08.400Z,14.87
2022-07-31T02:21:40.309Z,12.23
2022-07-31T02:24:11.718Z,12.30
2022-07-31T02:26:43.293Z,9.70
2022-07-31T02:29:20.156Z,8.20
2022-07-31T02:32:03.196Z,10.70
2022-07-31T02:34:36.296Z,8.87
2022-07-31T02:37:08.375Z,8.90
2022-07-31T02:39:41.196Z,10.47
2022-07-31T02:42:12.926Z,11.43
2022-07-31T02:44:45.387Z,10.93
2022-07-31T02:47:17.032Z,10.73
2022-07-31T02:49:49.609Z,10.53
2022-07-31T02:52:21.279Z,9.07
2022-07-31T02:54:53.405Z,11.30
2022-07-31T02:57:24.846Z,9.53
2022-07-31T02:59:56.481Z,8.50
2022-07-31T03:02:36.922Z,11.37
2022-07-31T03:05:09.596Z,9.47
2022-07-31T03:07:41.007Z,8.67
2022-07-31T03:10:12.998Z,8.00
2022-07-31T03:12:47.446Z,8.43
2022-07-31T03:15:21.917Z,8.20
2022-07-31T03:17:54.301Z,10.10
2022-07-31T03:20:26.961Z,11.87
2022-07-31T03:23:00.283Z,9.83
2022-07-31T03:25:34.525Z,12.47
2022-07-31T03:28:05.856Z,13.67
2022-07-31T03:30:37.401Z,15.17
2022-07-31T03:33:08.741Z,11.83
2022-07-31T03:35:44.481Z,13.40
2022-07-31T03:38:38.634Z,12.35
2022-07-31T03:41:07.454Z,10.70
2022-07-31T03:43:47.497Z,11.83
2022-07-31T03:46:21.901Z,11.77
2022-07-31T03:48:53.496Z,8.53
2022-07-31T03:51:25.514Z,8.20
2022-07-31T03:53:56.963Z,13.00
2022-07-31T03:56:28.765Z,11.83
2022-07-31T03:59:00.274Z,10.30
2022-07-31T04:01:57.948Z,13.20
2022-07-31T04:04:26.076Z,10.70
2022-07-31T04:06:57.481Z,10.50
2022-07-31T04:09:29.265Z,16.30
2022-07-31T04:12:00.705Z,9.87
2022-07-31T04:14:32.241Z,14.03
2022-07-31T04:17:03.754Z,10.17
2022-07-31T04:19:35.232Z,14.07
2022-07-31T04:22:07.546Z,14.20
2022-07-31T04:24:39.160Z,13.97
2022-07-31T04:27:12.836Z,12.37
2022-07-31T04:29:45.649Z,12.20
2022-07-31T04:32:16.959Z,11.93
2022-07-31T04:34:48.362Z,14.77
2022-07-31T04:37:19.715Z,12.90
2022-07-31T04:39:51.033Z,13.90
2022-07-31T04:42:22.443Z,14.70
2022-07-31T04:44:54.141Z,15.63
2022-07-31T04:47:25.495Z,14.93
2022-07-31T04:49:56.816Z,16.87
2022-07-31T04:52:28.398Z,18.83
2022-07-31T04:54:59.707Z,14.43
2022-07-31T04:57:31.150Z,12.03
2022-07-31T05:00:03.240Z,13.17
2022-07-31T05:02:34.700Z,12.33
2022-07-31T05:05:06.493Z,16.03
2022-07-31T05:07:38.729Z,15.60
2022-07-31T05:10:10.163Z,13.70
2022-07-31T05:12:41.458Z,13.90
2022-07-31T05:15:14.061Z,14.70
2022-07-31T05:17:45.349Z,13.43
2022-07-31T05:20:16.673Z,15.93
2022-07-31T05:22:47.957Z,11.63
2022-07-31T05:25:19.263Z,15.27
2022-07-31T05:27:50.583Z,15.13
2022-07-31T05:30:30.112Z,16.80
2022-07-31T05:33:02.052Z,13.68
2022-07-31T05:35:33.445Z,11.93
2022-07-31T05:38:04.859Z,14.93
2022-07-31T05:40:43.269Z,14.82
2022-07-31T05:43:14.624Z,11.60
2022-07-31T05:45:49.356Z,12.75
2022-07-31T05:48:21.258Z,11.38
2022-07-31T05:50:52.759Z,11.73
2022-07-31T05:53:24.174Z,12.27
2022-07-31T05:55:55.463Z,15.95
2022-07-31T05:58:26.754Z,10.18
2022-07-31T06:00:58.342Z,13.32
2022-07-31T06:03:30.017Z,10.55
2022-07-31T06:06:02.898Z,9.60
2022-07-31T06:08:34.204Z,10.25
2022-07-31T06:11:05.894Z,10.85
2022-07-31T06:13:37.286Z,9.85
2022-07-31T06:16:12.815Z,7.43
2022-07-31T06:18:44.108Z,8.77
2022-07-31T06:23:45.755Z,13.27
2022-07-31T06:26:17.155Z,7.57
2022-07-31T06:28:49.726Z,7.30
2022-07-31T06:31:22.164Z,5.20
2022-07-31T06:33:53.494Z,6.38
2022-07-31T06:36:24.779Z,5.97
2022-07-31T06:38:56.158Z,6.20
2022-07-31T06:41:44.312Z,6.70
2022-07-31T06:44:17.061Z,6.13
2022-07-31T06:46:49.606Z,5.53
2022-07-31T06:49:21.036Z,8.60
2022-07-31T06:51:52.705Z,8.68
2022-07-31T06:54:26.786Z,5.38
2022-07-31T06:56:58.315Z,7.50
2022-07-31T06:59:39.965Z,4.65
2022-07-31T07:02:12.108Z,8.60
2022-07-31T07:04:57.822Z,4.85
2022-07-31T07:07:36.512Z,6.82
2022-07-31T07:10:08.023Z,6.20
2022-07-31T07:12:39.329Z,6.78
2022-07-31T07:15:10.915Z,8.57
2022-07-31T07:17:42.210Z,5.82
2022-07-31T07:20:13.775Z,6.75
2022-07-31T07:22:45.084Z,7.07
2022-07-31T07:25:16.490Z,7.15
2022-07-31T07:27:47.844Z,6.35
2022-07-31T07:30:19.384Z,6.78
2022-07-31T07:32:50.731Z,4.05
2022-07-31T07:35:22.061Z,6.13
2022-07-31T07:37:54.050Z,6.00
2022-07-31T07:40:26.775Z,9.50
2022-07-31T07:43:02.823Z,3.97
2022-07-31T07:45:34.620Z,3.35
2022-07-31T07:48:07.542Z,5.88
2022-07-31T07:50:39.192Z,3.60
2022-07-31T07:53:12.854Z,5.90
2022-07-31T07:55:44.185Z,5.78
2022-07-31T07:58:16.054Z,7.80
2022-07-31T08:00:47.383Z,5.18
2022-07-31T08:03:49.879Z,7.63
2022-07-31T08:06:10.145Z,8.77
2022-07-31T08:08:41.546Z,4.50
2022-07-31T08:11:16.979Z,4.15
2022-07-31T08:13:50.873Z,5.47
2022-07-31T08:16:22.619Z,4.57
2022-07-31T08:18:54.759Z,6.07
2022-07-31T08:21:26.572Z,8.02
2022-07-31T08:23:57.891Z,9.38
2022-07-31T08:26:52.069Z,4.20
2022-07-31T08:29:26.541Z,5.47
2022-07-31T08:32:00.173Z,3.35
2022-07-31T08:34:32.246Z,6.47
2022-07-31T08:37:50.968Z,3.60
2022-07-31T08:39:57.772Z,8.00
2022-07-31T08:42:29.104Z,2.80
2022-07-31T08:45:00.418Z,5.60
2022-07-31T08:47:33.275Z,2.78
2022-07-31T08:50:05.594Z,5.40
2022-07-31T08:52:37.309Z,3.17
2022-07-31T08:55:09.246Z,5.32
2022-07-31T08:57:41.405Z,3.13
2022-07-31T09:00:17.380Z,2.67
2022-07-31T09:02:49.829Z,5.05
2022-07-31T09:05:21.712Z,5.55
2022-07-31T09:07:53.102Z,8.15
2022-07-31T09:10:26.722Z,4.38
2022-07-31T09:12:58.107Z,5.32
2022-07-31T09:15:31.384Z,4.30
2022-07-31T09:18:02.714Z,4.68
2022-07-31T09:20:34.047Z,4.78
2022-07-31T09:23:10.016Z,5.38
2022-07-31T09:25:51.706Z,3.63
2022-07-31T09:28:35.659Z,2.70
2022-07-31T09:31:09.318Z,3.92
2022-07-31T09:33:46.121Z,5.78
2022-07-31T09:36:22.955Z,5.10
2022-07-31T09:38:56.330Z,5.95
2022-07-31T09:41:55.961Z,5.80
2022-07-31T09:44:18.968Z,3.35
2022-07-31T09:46:56.746Z,4.47
2022-07-31T09:49:32.734Z,4.88
2022-07-31T09:52:04.360Z,7.22
2022-07-31T09:54:35.659Z,3.08
2022-07-31T09:57:12.333Z,4.95
2022-07-31T09:59:44.320Z,6.55
2022-07-31T10:02:19.918Z,3.30
2022-07-31T10:04:54.162Z,2.78
2022-07-31T10:07:32.463Z,4.47
2022-07-31T10:10:07.002Z,4.50
2022-07-31T10:12:42.371Z,3.05
2022-07-31T10:15:17.200Z,2.63
2022-07-31T10:17:51.532Z,2.97
2022-07-31T10:20:24.869Z,3.57
2022-07-31T10:23:01.513Z,4.35
2022-07-31T10:25:35.840Z,6.18
2022-07-31T10:28:07.697Z,2.57
2022-07-31T10:30:39.465Z,5.13
2022-07-31T10:33:34.111Z,2.30
2022-07-31T10:36:16.729Z,3.75
2022-07-31T10:38:58.580Z,4.50
2022-07-31T10:41:47.818Z,4.22
2022-07-31T10:44:38.651Z,1.58
2022-07-31T10:47:14.865Z,3.10
2022-07-31T10:49:49.025Z,2.35
2022-07-31T10:52:31.056Z,5.47
2022-07-31T10:55:14.677Z,2.70
2022-07-31T10:57:57.288Z,1.88
2022-07-31T11:00:30.061Z,2.30
2022-07-31T11:03:13.397Z,3.95
2022-07-31T11:06:01.587Z,2.22
2022-07-31T11:08:52.181Z,2.20
2022-07-31T11:11:37.693Z,4.85
2022-07-31T11:16:53.167Z,3.13
2022-07-31T11:19:24.839Z,3.10
2022-07-31T11:21:57.999Z,2.33
2022-07-31T11:24:29.350Z,2.58
2022-07-31T11:27:00.664Z,10.63
2022-07-31T11:29:58.991Z,4.15
2022-07-31T11:32:26.567Z,4.47
2022-07-31T11:34:58.184Z,4.22
2022-07-31T11:37:56.226Z,4.68
2022-07-31T11:40:26.520Z,4.97
2022-07-31T11:45:54.895Z,5.22
2022-07-31T11:48:27.931Z,3.28
2022-07-31T11:51:00.992Z,4.95
2022-07-31T11:53:40.836Z,4.30
2022-07-31T11:56:12.434Z,3.70
2022-07-31T11:58:48.733Z,7.18
2022-07-31T12:01:27.091Z,5.20
2022-07-31T12:04:07.532Z,3.00
2022-07-31T12:06:40.686Z,3.30
2022-07-31T12:10:02.589Z,4.93
2022-07-31T12:12:04.538Z,2.75
2022-07-31T12:14:38.481Z,6.03
2022-07-31T12:17:20.030Z,3.67
2022-07-31T12:19:56.105Z,4.55
2022-07-31T12:22:29.227Z,3.88
2022-07-31T12:25:03.152Z,5.68
2022-07-31T12:27:37.416Z,4.00
2022-07-31T12:30:16.633Z,4.32
2022-07-31T12:32:48.190Z,3.00
2022-07-31T12:35:19.536Z,4.70
2022-07-31T12:37:52.733Z,7.03
2022-07-31T12:40:26.106Z,4.13
2022-07-31T12:42:59.551Z,8.43
2022-07-31T12:45:36.246Z,4.13
2022-07-31T12:48:07.697Z,3.83
2022-07-31T12:50:39.058Z,2.60
2022-07-31T12:53:10.498Z,5.03
2022-07-31T12:55:41.805Z,5.85
2022-07-31T12:58:13.167Z,3.65
2022-07-31T13:00:44.466Z,5.80
2022-07-31T13:03:16.034Z,4.30
2022-07-31T13:05:51.879Z,3.92
2022-07-31T13:08:23.598Z,6.88
2022-07-31T13:10:54.898Z,5.00
2022-07-31T13:13:26.288Z,4.32
2022-07-31T13:15:57.593Z,4.10
2022-07-31T13:18:29.982Z,3.35
2022-07-31T13:21:02.108Z,4.70
2022-07-31T13:23:33.489Z,6.57
2022-07-31T13:26:05.008Z,3.17
2022-07-31T13:28:36.293Z,3.72
2022-07-31T13:31:07.684Z,4.85
2022-07-31T13:33:38.984Z,3.17
2022-07-31T13:36:10.328Z,4.28
2022-07-31T13:38:41.762Z,5.88
2022-07-31T13:41:27.817Z,3.40
2022-07-31T13:44:00.458Z,4.07
2022-07-31T13:46:32.151Z,4.20
2022-07-31T13:49:08.367Z,4.53
2022-07-31T13:51:39.989Z,3.53
2022-07-31T13:54:11.516Z,8.68
2022-07-31T13:56:43.751Z,6.18
2022-07-31T13:59:16.124Z,4.07
2022-07-31T14:02:03.063Z,3.05
2022-07-31T14:04:38.892Z,3.00
2022-07-31T14:07:12.819Z,3.25
2022-07-31T14:09:47.111Z,3.10
2022-07-31T14:12:26.237Z,3.08
2022-07-31T14:14:57.622Z,3.85
2022-07-31T14:17:28.907Z,5.30
2022-07-31T14:20:00.280Z,3.70
2022-07-31T14:22:32.546Z,4.15
2022-07-31T14:25:04.193Z,4.50
2022-07-31T14:27:35.917Z,4.60
2022-07-31T14:30:09.127Z,5.80
2022-07-31T14:32:40.750Z,4.95
2022-07-31T14:35:12.380Z,4.38
2022-07-31T14:37:43.733Z,3.90
2022-07-31T14:40:16.299Z,4.07
2022-07-31T14:42:47.622Z,4.13
2022-07-31T14:45:19.000Z,3.88
2022-07-31T14:47:50.329Z,4.63
2022-07-31T14:50:23.202Z,4.40
2022-07-31T14:52:56.150Z,4.15
2022-07-31T14:55:28.972Z,5.10
2022-07-31T14:58:00.277Z,7.20
2022-07-31T15:00:31.565Z,7.53
2022-07-31T15:03:02.942Z,7.43
2022-07-31T15:06:51.003Z,7.43
2022-07-31T15:08:26.588Z,5.90
2022-07-31T15:10:57.960Z,5.28
2022-07-31T15:13:29.250Z,8.45
2022-07-31T15:16:00.638Z,5.97
2022-07-31T15:18:31.966Z,5.25
2022-07-31T15:21:03.293Z,5.82
2022-07-31T15:23:35.990Z,4.72
2022-07-31T15:26:07.417Z,6.28
2022-07-31T15:28:38.766Z,7.70
2022-07-31T15:31:10.088Z,5.82
2022-07-31T15:33:41.546Z,5.53
2022-07-31T15:36:15.277Z,8.02
2022-07-31T15:38:46.742Z,7.03
2022-07-31T15:41:19.032Z,6.05
2022-07-31T15:43:50.549Z,7.72
2022-07-31T15:46:21.909Z,10.50
2022-07-31T15:48:53.241Z,8.10
2022-07-31T15:51:24.553Z,8.50
2022-07-31T15:53:56.076Z,12.57
2022-07-31T15:56:27.440Z,8.88
2022-07-31T15:59:00.128Z,9.00
2022-07-31T16:01:31.501Z,8.50
2022-07-31T16:04:03.072Z,8.52
2022-07-31T16:06:50.507Z,9.70
2022-07-31T16:09:23.935Z,8.70
2022-07-31T16:12:02.950Z,12.55
2022-07-31T16:14:36.595Z,15.00
2022-07-31T16:17:08.173Z,10.32
2022-07-31T16:19:40.263Z,9.90
2022-07-31T16:22:12.130Z,11.68
2022-07-31T16:24:43.554Z,11.40
2022-07-31T16:27:14.851Z,12.70
2022-07-31T16:29:59.487Z,10.75
2022-07-31T16:32:33.414Z,14.07
2022-07-31T16:35:06.242Z,15.20
2022-07-31T16:37:52.256Z,13.27
2022-07-31T16:40:30.683Z,20.73
2022-07-31T16:43:50.021Z,17.60
2022-07-31T16:45:56.805Z,19.83
2022-07-31T16:48:28.108Z,21.40
2022-07-31T16:51:00.585Z,18.80
2022-07-31T16:54:11.672Z,16.00
2022-07-31T16:56:23.397Z,20.90
2022-07-31T16:58:55.979Z,15.70
2022-07-31T17:01:58.550Z,18.23
2022-07-31T17:04:18.646Z,19.95
2022-07-31T17:06:50.025Z,15.88
2022-07-31T17:09:21.704Z,16.42
2022-07-31T17:11:55.794Z,14.25
2022-07-31T17:14:27.956Z,18.58
2022-07-31T17:16:59.361Z,15.43
2022-07-31T17:19:42.828Z,18.23
2022-07-31T17:22:18.742Z,18.13
2022-07-31T17:24:50.656Z,16.23
2022-07-31T17:27:22.545Z,15.70
2022-07-31T17:29:55.007Z,19.95
2022-07-31T17:32:26.843Z,19.33
2022-07-31T17:34:58.157Z,17.92
2022-07-31T17:37:30.491Z,19.55
2022-07-31T17:40:03.575Z,16.30
2022-07-31T17:42:34.897Z,16.55
2022-07-31T17:45:06.811Z,13.57
2022-07-31T17:47:38.451Z,14.77
2022-07-31T17:50:10.126Z,14.38
2022-07-31T17:52:41.411Z,14.77
2022-07-31T17:55:12.765Z,17.98
2022-07-31T17:57:44.046Z,15.38
2022-07-31T18:00:15.650Z,15.35
2022-07-31T18:02:46.985Z,17.58
2022-07-31T18:05:18.461Z,18.35
2022-07-31T18:07:51.756Z,19.45
2022-07-31T18:10:32.661Z,17.25
2022-07-31T18:13:15.078Z,20.13
2022-07-31T18:15:46.401Z,19.77
2022-07-31T18:18:17.819Z,19.30
2022-07-31T18:20:49.128Z,16.85
2022-07-31T18:23:22.887Z,20.58
2022-07-31T18:25:58.310Z,16.20
2022-07-31T18:28:31.497Z,17.38
2022-07-31T18:31:02.813Z,18.63
2022-07-31T18:33:34.400Z,9.85
2022-07-31T18:36:05.978Z,10.60
2022-07-31T18:38:38.069Z,8.85
2022-07-31T18:41:09.448Z,9.68
2022-07-31T18:43:40.774Z,9.30
2022-07-31T18:46:12.169Z,9.50
2022-07-31T18:48:43.470Z,8.82
2022-07-31T18:51:14.852Z,9.43
2022-07-31T18:53:46.186Z,8.53
2022-07-31T18:56:17.713Z,8.53
2022-07-31T18:58:49.005Z,10.52
2022-07-31T19:01:21.006Z,9.98
2022-07-31T19:03:52.941Z,9.95
2022-07-31T19:06:24.295Z,9.52
2022-07-31T19:08:56.606Z,9.50
2022-07-31T19:11:28.764Z,9.97
2022-07-31T19:14:00.101Z,8.23
2022-07-31T19:16:31.405Z,10.70
2022-07-31T19:19:03.881Z,8.77
2022-07-31T19:21:42.362Z,9.98
2022-07-31T19:24:14.528Z,10.27
2022-07-31T19:26:45.929Z,10.32
2022-07-31T19:29:18.673Z,8.13
2022-07-31T19:31:50.163Z,8.52
2022-07-31T19:34:21.603Z,7.90
2022-07-31T19:36:52.918Z,9.33
2022-07-31T19:39:24.252Z,9.43
2022-07-31T19:42:21.529Z,9.17
2022-07-31T19:44:46.960Z,8.03
2022-07-31T19:47:18.307Z,9.47
2022-07-31T19:49:51.274Z,7.78
2022-07-31T19:52:22.679Z,7.53
2022-07-31T19:54:54.013Z,10.20
2022-07-31T19:57:25.339Z,8.23
2022-07-31T19:59:56.655Z,9.90
2022-07-31T20:02:27.993Z,8.87
2022-07-31T20:05:00.168Z,7.53
2022-07-31T20:07:33.144Z,6.87
2022-07-31T20:10:09.728Z,8.37
2022-07-31T20:12:41.325Z,8.60
2022-07-31T20:15:12.810Z,9.60
2022-07-31T20:17:44.228Z,7.90
2022-07-31T20:20:16.321Z,12.20
2022-07-31T20:22:47.733Z,8.35
2022-07-31T20:25:20.266Z,8.43
2022-07-31T20:27:52.063Z,9.20
2022-07-31T20:30:25.002Z,9.23
2022-07-31T20:32:56.492Z,6.82
2022-07-31T20:35:33.093Z,8.07
2022-07-31T20:38:24.248Z,9.07
2022-07-31T20:40:56.166Z,8.38
2022-07-31T20:43:29.496Z,7.28
2022-07-31T20:46:00.827Z,8.52
2022-07-31T20:48:32.740Z,8.50
2022-07-31T20:51:05.518Z,9.57
2022-07-31T20:53:37.398Z,8.00
2022-07-31T20:56:09.049Z,8.98
2022-07-31T20:58:41.313Z,8.10
2022-07-31T21:01:13.117Z,8.07
2022-07-31T21:03:44.433Z,8.45
2022-07-31T21:06:16.442Z,9.27
2022-07-31T21:08:48.323Z,10.60
2022-07-31T21:11:20.364Z,9.68
2022-07-31T21:13:51.707Z,11.65
2022-07-31T21:16:24.481Z,11.52
2022-07-31T21:18:55.836Z,9.13
2022-07-31T21:21:27.241Z,9.27
2022-07-31T21:24:00.839Z,9.63
2022-07-31T21:26:33.653Z,10.30
2022-07-31T21:29:09.000Z,10.77
2022-07-31T21:31:49.179Z,11.63
2022-07-31T21:34:21.747Z,11.85
2022-07-31T21:36:53.584Z,10.80
2022-07-31T21:39:25.789Z,12.57
2022-07-31T21:41:57.357Z,13.10
2022-07-31T21:44:29.034Z,15.25
2022-07-31T21:47:03.130Z,10.43
2022-07-31T21:49:35.426Z,13.13
2022-07-31T21:52:07.676Z,15.60
2022-07-31T21:54:39.743Z,17.10
2022-07-31T21:57:11.037Z,16.13
2022-07-31T21:59:42.342Z,13.27
2022-07-31T22:02:14.243Z,14.48
2022-07-31T22:05:04.748Z,12.67
2022-07-31T22:07:46.426Z,15.03
2022-07-31T22:10:21.055Z,14.73
2022-07-31T22:12:52.864Z,12.80
2022-07-31T22:15:24.208Z,14.13
2022-07-31T22:17:55.546Z,13.88
2022-07-31T22:20:26.962Z,15.00
2022-07-31T22:22:58.531Z,14.50
2022-07-31T22:25:30.162Z,13.95
2022-07-31T22:28:03.117Z,17.05
2022-07-31T22:30:34.641Z,19.77
2022-07-31T22:33:06.128Z,17.77
2022-07-31T22:35:37.745Z,19.93
2022-07-31T22:38:11.001Z,21.58
2022-07-31T22:40:43.979Z,23.85
2022-07-31T22:44:10.199Z,21.50
2022-07-31T22:46:08.256Z,21.38
2022-07-31T22:48:40.696Z,24.15
2022-07-31T22:51:15.203Z,23.20
2022-07-31T22:53:49.023Z,19.87
2022-07-31T22:56:20.600Z,17.30
2022-07-31T22:58:51.952Z,22.08
2022-07-31T23:01:23.267Z,21.10
2022-07-31T23:03:54.759Z,19.77
2022-07-31T23:06:32.345Z,22.15
2022-07-31T23:09:04.085Z,21.65
2022-07-31T23:11:35.499Z,20.75
2022-07-31T23:14:06.826Z,17.30
2022-07-31T23:16:38.151Z,21.63
2022-07-31T23:19:09.763Z,24.02
2022-07-31T23:21:41.212Z,23.20
2022-07-31T23:24:12.636Z,22.40
2022-07-31T23:26:43.995Z,22.83
2022-07-31T23:29:15.362Z,19.30
2022-07-31T23:31:46.669Z,20.92
2022-07-31T23:34:18.047Z,16.83
2022-07-31T23:36:49.355Z,16.80
2022-07-31T23:39:22.879Z,20.15
2022-07-31T23:42:12.681Z,18.05
2022-07-31T23:44:46.316Z,19.98
2022-07-31T23:47:18.036Z,17.13
2022-07-31T23:49:49.346Z,16.70
2022-07-31T23:52:20.645Z,19.17
2022-07-31T23:54:51.937Z,18.85
2022-07-31T23:57:23.337Z,19.13
2022-07-31T23:59:54.654Z,19.05
